createdAt,value
2019-05-11T00:00:05.605Z,93.50
2019-05-11T00:00:39.412Z,93.50
2019-05-11T00:01:12.896Z,93.40
2019-05-11T00:01:46.754Z,93.40
2019-05-11T00:02:20.553Z,93.40
2019-05-11T00:02:54.336Z,93.30
2019-05-11T00:03:27.743Z,93.30
2019-05-11T00:04:01.528Z,93.20
2019-05-11T00:04:35.312Z,93.20
2019-05-11T00:05:09.115Z,93.20
2019-05-11T00:05:42.555Z,93.30
2019-05-11T00:06:16.432Z,93.20
2019-05-11T00:06:50.217Z,93.10
2019-05-11T00:07:23.999Z,93.20
2019-05-11T00:07:57.422Z,93.30
2019-05-11T00:08:31.198Z,93.30
2019-05-11T00:09:07.027Z,93.30
2019-05-11T00:09:55.645Z,93.20
2019-05-11T00:10:15.875Z,93.10
2019-05-11T00:10:49.668Z,93.10
2019-05-11T00:11:23.471Z,93.20
2019-05-11T00:11:57.288Z,93.20
2019-05-11T00:12:30.708Z,93.10
2019-05-11T00:13:04.500Z,93.00
2019-05-11T00:13:38.281Z,93.00
2019-05-11T00:14:12.067Z,93.10
2019-05-11T00:14:45.487Z,93.30
2019-05-11T00:15:19.272Z,93.30
2019-05-11T00:15:53.062Z,93.30
2019-05-11T00:16:26.843Z,93.20
2019-05-11T00:17:00.287Z,93.20
2019-05-11T00:17:34.092Z,93.10
2019-05-11T00:18:07.960Z,93.20
2019-05-11T00:18:41.767Z,93.20
2019-05-11T00:19:15.256Z,93.20
2019-05-11T00:19:49.038Z,93.20
2019-05-11T00:20:22.895Z,93.20
2019-05-11T00:20:56.718Z,93.30
2019-05-11T00:21:30.139Z,93.30
2019-05-11T00:22:03.973Z,93.30
2019-05-11T00:22:37.832Z,93.20
2019-05-11T00:23:11.632Z,93.30
2019-05-11T00:23:45.047Z,93.40
2019-05-11T00:24:18.835Z,93.40
2019-05-11T00:24:52.637Z,93.30
2019-05-11T00:25:26.418Z,93.20
2019-05-11T00:25:59.833Z,93.20
2019-05-11T00:26:33.617Z,93.30
2019-05-11T00:27:07.404Z,93.20
2019-05-11T00:27:41.192Z,93.30
2019-05-11T00:28:14.660Z,93.20
2019-05-11T00:28:48.732Z,93.20
2019-05-11T00:29:22.520Z,93.20
2019-05-11T00:29:56.301Z,93.10
2019-05-11T00:30:29.717Z,93.10
2019-05-11T00:31:04.272Z,93.10
2019-05-11T00:31:38.064Z,93.10
2019-05-11T00:32:11.846Z,93.10
2019-05-11T00:32:45.331Z,93.20
2019-05-11T00:33:19.179Z,93.20
2019-05-11T00:33:52.989Z,93.20
2019-05-11T00:34:26.794Z,93.10
2019-05-11T00:35:00.676Z,93.10
2019-05-11T00:35:34.475Z,93.00
2019-05-11T00:36:08.270Z,93.00
2019-05-11T00:36:42.059Z,93.00
2019-05-11T00:37:15.488Z,93.00
2019-05-11T00:37:49.741Z,93.10
2019-05-11T00:38:23.526Z,93.10
2019-05-11T00:38:57.311Z,93.10
2019-05-11T00:39:30.751Z,93.10
2019-05-11T00:40:13.891Z,93.20
2019-05-11T00:40:41.231Z,93.20
2019-05-11T00:41:15.017Z,93.10
2019-05-11T00:41:48.505Z,93.10
2019-05-11T00:42:22.287Z,93.00
2019-05-11T00:42:56.067Z,93.10
2019-05-11T00:43:29.864Z,93.10
2019-05-11T00:44:03.281Z,93.10
2019-05-11T00:44:37.067Z,93.10
2019-05-11T00:45:10.877Z,93.00
2019-05-11T00:45:44.764Z,93.20
2019-05-11T00:46:18.187Z,93.30
2019-05-11T00:46:51.970Z,93.20
2019-05-11T00:47:25.756Z,93.20
2019-05-11T00:47:59.536Z,93.20
2019-05-11T00:48:32.956Z,93.20
2019-05-11T00:49:06.744Z,93.30
2019-05-11T00:49:40.531Z,93.30
2019-05-11T00:50:14.332Z,93.20
2019-05-11T00:50:47.759Z,93.20
2019-05-11T00:51:21.572Z,93.20
2019-05-11T00:51:55.355Z,93.10
2019-05-11T00:52:29.144Z,93.10
2019-05-11T00:53:02.564Z,93.10
2019-05-11T00:53:36.367Z,93.00
2019-05-11T00:54:10.136Z,93.00
2019-05-11T00:54:43.928Z,93.00
2019-05-11T00:55:17.348Z,93.00
2019-05-11T00:55:51.133Z,93.10
2019-05-11T00:56:24.943Z,93.20
2019-05-11T00:56:58.749Z,93.30
2019-05-11T00:57:32.163Z,93.30
2019-05-11T00:58:05.958Z,93.30
2019-05-11T00:58:39.743Z,93.30
2019-05-11T00:59:21.340Z,93.30
2019-05-11T00:59:48.596Z,93.30
2019-05-11T01:00:22.382Z,93.30
2019-05-11T01:00:56.172Z,93.30
2019-05-11T01:01:29.949Z,93.30
2019-05-11T01:02:03.386Z,93.30
2019-05-11T01:02:37.196Z,93.70
2019-05-11T01:03:11.001Z,93.30
2019-05-11T01:03:44.802Z,93.30
2019-05-11T01:04:18.216Z,93.30
2019-05-11T01:04:51.990Z,93.30
2019-05-11T01:05:25.765Z,93.40
2019-05-11T01:05:59.577Z,93.40
2019-05-11T01:06:32.969Z,93.40
2019-05-11T01:07:06.753Z,93.30
2019-05-11T01:07:40.558Z,93.30
2019-05-11T01:08:14.371Z,93.40
2019-05-11T01:08:47.786Z,93.40
2019-05-11T01:09:21.587Z,93.40
2019-05-11T01:09:55.359Z,93.40
2019-05-11T01:10:41.511Z,93.40
2019-05-11T01:11:04.212Z,93.40
2019-05-11T01:11:37.995Z,93.40
2019-05-11T01:12:11.777Z,93.40
2019-05-11T01:12:45.568Z,93.30
2019-05-11T01:13:19.000Z,93.30
2019-05-11T01:13:52.804Z,93.40
2019-05-11T01:14:26.661Z,93.50
2019-05-11T01:15:00.458Z,93.50
2019-05-11T01:15:33.878Z,93.50
2019-05-11T01:16:07.657Z,93.50
2019-05-11T01:16:41.437Z,93.50
2019-05-11T01:17:15.230Z,93.50
2019-05-11T01:17:48.709Z,93.80
2019-05-11T01:18:22.443Z,93.50
2019-05-11T01:18:56.252Z,93.40
2019-05-11T01:19:30.056Z,93.60
2019-05-11T01:20:05.028Z,93.60
2019-05-11T01:20:38.803Z,93.60
2019-05-11T01:21:12.583Z,93.60
2019-05-11T01:21:46.365Z,93.60
2019-05-11T01:22:19.783Z,93.60
2019-05-11T01:22:53.652Z,93.60
2019-05-11T01:23:27.460Z,93.50
2019-05-11T01:24:01.243Z,93.50
2019-05-11T01:24:34.680Z,93.50
2019-05-11T01:25:08.488Z,93.60
2019-05-11T01:25:42.273Z,93.50
2019-05-11T01:26:16.059Z,93.50
2019-05-11T01:26:49.474Z,93.50
2019-05-11T01:27:23.259Z,93.50
2019-05-11T01:27:57.041Z,93.40
2019-05-11T01:28:30.824Z,93.50
2019-05-11T01:29:04.247Z,93.50
2019-05-11T01:29:38.045Z,93.50
2019-05-11T01:30:11.854Z,93.90
2019-05-11T01:30:45.660Z,93.60
2019-05-11T01:31:19.071Z,93.60
2019-05-11T01:31:52.856Z,93.50
2019-05-11T01:32:26.646Z,93.50
2019-05-11T01:33:00.424Z,93.50
2019-05-11T01:33:33.836Z,93.50
2019-05-11T01:34:07.632Z,93.40
2019-05-11T01:34:41.407Z,93.50
2019-05-11T01:35:15.186Z,93.20
2019-05-11T01:35:51.086Z,93.40
2019-05-11T01:36:24.094Z,93.40
2019-05-11T01:36:57.873Z,93.50
2019-05-11T01:37:31.656Z,93.40
2019-05-11T01:38:05.105Z,93.50
2019-05-11T01:38:38.851Z,93.50
2019-05-11T01:39:12.635Z,93.40
2019-05-11T01:39:46.424Z,93.40
2019-05-11T01:40:19.843Z,93.40
2019-05-11T01:40:58.618Z,93.40
2019-05-11T01:41:29.081Z,93.50
2019-05-11T01:42:02.889Z,93.50
2019-05-11T01:42:36.297Z,93.40
2019-05-11T01:43:10.083Z,93.40
2019-05-11T01:43:43.872Z,93.40
2019-05-11T01:44:17.661Z,93.40
2019-05-11T01:44:51.087Z,93.40
2019-05-11T01:45:24.868Z,93.50
2019-05-11T01:45:58.653Z,93.50
2019-05-11T01:46:32.431Z,93.50
2019-05-11T01:47:05.867Z,93.60
2019-05-11T01:47:39.680Z,93.60
2019-05-11T01:48:13.467Z,93.50
2019-05-11T01:48:47.267Z,93.50
2019-05-11T01:49:20.670Z,93.60
2019-05-11T01:49:54.457Z,93.60
2019-05-11T01:50:28.235Z,93.60
2019-05-11T01:51:02.032Z,93.60
2019-05-11T01:51:35.427Z,93.60
2019-05-11T01:52:09.219Z,93.60
2019-05-11T01:52:43.023Z,93.60
2019-05-11T01:53:16.830Z,93.60
2019-05-11T01:53:50.245Z,93.60
2019-05-11T01:54:24.023Z,93.60
2019-05-11T01:54:57.810Z,93.60
2019-05-11T01:55:31.595Z,93.60
2019-05-11T01:56:05.019Z,93.60
2019-05-11T01:56:38.811Z,93.60
2019-05-11T01:57:12.689Z,93.70
2019-05-11T01:57:46.489Z,93.70
2019-05-11T01:58:19.936Z,93.70
2019-05-11T01:58:53.739Z,93.70
2019-05-11T01:59:27.523Z,93.80
2019-05-11T02:00:01.306Z,93.70
2019-05-11T02:00:34.723Z,93.80
2019-05-11T02:01:08.511Z,93.80
2019-05-11T02:01:42.293Z,93.80
2019-05-11T02:02:16.076Z,93.80
2019-05-11T02:02:49.491Z,93.80
2019-05-11T02:03:23.281Z,93.80
2019-05-11T02:03:57.096Z,93.80
2019-05-11T02:04:30.901Z,93.80
2019-05-11T02:05:26.219Z,93.80
2019-05-11T02:05:59.634Z,93.80
2019-05-11T02:06:33.417Z,93.80
2019-05-11T02:07:07.199Z,93.90
2019-05-11T02:07:40.985Z,93.90
2019-05-11T02:08:14.399Z,93.90
2019-05-11T02:08:48.190Z,94.00
2019-05-11T02:09:22.012Z,94.00
2019-05-11T02:09:55.811Z,94.00
2019-05-11T02:10:29.300Z,94.00
2019-05-11T02:11:15.362Z,94.00
2019-05-11T02:11:38.527Z,94.00
2019-05-11T02:12:12.315Z,94.00
2019-05-11T02:12:45.752Z,94.00
2019-05-11T02:13:19.534Z,94.10
2019-05-11T02:13:53.326Z,94.10
2019-05-11T02:14:27.114Z,94.10
2019-05-11T02:15:00.563Z,94.10
2019-05-11T02:15:34.375Z,94.10
2019-05-11T02:16:08.162Z,94.10
2019-05-11T02:16:41.951Z,94.10
2019-05-11T02:17:15.377Z,94.10
2019-05-11T02:17:49.209Z,94.10
2019-05-11T02:18:22.998Z,94.10
2019-05-11T02:18:56.787Z,94.10
2019-05-11T02:19:30.194Z,94.20
2019-05-11T02:20:04.457Z,94.20
2019-05-11T02:20:38.269Z,94.20
2019-05-11T02:21:12.071Z,94.20
2019-05-11T02:21:45.491Z,94.20
2019-05-11T02:22:19.270Z,94.30
2019-05-11T02:22:53.061Z,94.30
2019-05-11T02:23:26.851Z,94.30
2019-05-11T02:24:00.272Z,94.30
2019-05-11T02:24:34.068Z,94.30
2019-05-11T02:25:08.420Z,94.30
2019-05-11T02:25:42.206Z,94.30
2019-05-11T02:26:15.648Z,94.30
2019-05-11T02:26:49.460Z,94.40
2019-05-11T02:27:23.236Z,94.40
2019-05-11T02:27:57.027Z,94.40
2019-05-11T02:28:30.448Z,94.40
2019-05-11T02:29:04.235Z,94.40
2019-05-11T02:29:41.322Z,94.40
2019-05-11T02:30:13.457Z,94.40
2019-05-11T02:30:46.878Z,94.40
2019-05-11T02:31:20.666Z,94.40
2019-05-11T02:31:54.474Z,94.50
2019-05-11T02:32:28.284Z,94.40
2019-05-11T02:33:01.709Z,94.50
2019-05-11T02:33:35.498Z,94.50
2019-05-11T02:34:09.278Z,94.50
2019-05-11T02:34:43.073Z,94.50
2019-05-11T02:35:16.502Z,94.50
2019-05-11T02:35:50.287Z,94.60
2019-05-11T02:36:24.080Z,94.50
2019-05-11T02:36:57.888Z,94.60
2019-05-11T02:37:31.326Z,94.60
2019-05-11T02:38:05.121Z,94.60
2019-05-11T02:38:38.916Z,94.60
2019-05-11T02:39:12.691Z,94.60
2019-05-11T02:39:46.112Z,94.70
2019-05-11T02:40:19.889Z,94.70
2019-05-11T02:40:53.685Z,94.70
2019-05-11T02:41:36.520Z,94.70
2019-05-11T02:42:02.541Z,94.70
2019-05-11T02:42:36.351Z,94.70
2019-05-11T02:43:10.158Z,94.80
2019-05-11T02:43:43.948Z,94.80
2019-05-11T02:44:17.380Z,94.80
2019-05-11T02:44:51.248Z,94.80
2019-05-11T02:45:34.312Z,94.80
2019-05-11T02:46:08.261Z,94.80
2019-05-11T02:46:41.679Z,94.80
2019-05-11T02:47:15.459Z,94.80
2019-05-11T02:47:49.273Z,94.80
2019-05-11T02:48:23.080Z,94.80
2019-05-11T02:48:56.497Z,94.90
2019-05-11T02:49:30.290Z,94.90
2019-05-11T02:50:05.122Z,94.90
2019-05-11T02:50:39.686Z,95.00
2019-05-11T02:51:13.092Z,95.00
2019-05-11T02:51:46.883Z,95.00
2019-05-11T02:52:20.676Z,95.00
2019-05-11T02:52:54.466Z,95.00
2019-05-11T02:53:29.075Z,95.00
2019-05-11T02:54:03.059Z,95.00
2019-05-11T02:54:36.842Z,95.10
2019-05-11T02:55:10.628Z,95.10
2019-05-11T02:55:44.044Z,95.10
2019-05-11T02:56:17.839Z,95.20
2019-05-11T02:56:51.731Z,95.20
2019-05-11T02:57:25.568Z,95.20
2019-05-11T02:57:58.956Z,95.30
2019-05-11T02:58:32.740Z,95.30
2019-05-11T02:59:06.551Z,95.30
2019-05-11T02:59:40.375Z,95.30
2019-05-11T03:00:13.773Z,95.30
2019-05-11T03:00:47.566Z,95.30
2019-05-11T03:01:21.348Z,95.40
2019-05-11T03:01:55.131Z,95.40
2019-05-11T03:02:28.557Z,95.40
2019-05-11T03:03:02.350Z,95.40
2019-05-11T03:03:36.138Z,95.40
2019-05-11T03:04:09.920Z,95.40
2019-05-11T03:04:43.360Z,95.40
2019-05-11T03:05:17.167Z,95.50
2019-05-11T03:05:50.955Z,95.50
2019-05-11T03:06:24.746Z,95.50
2019-05-11T03:06:58.156Z,95.60
2019-05-11T03:07:31.946Z,95.50
2019-05-11T03:08:05.800Z,95.60
2019-05-11T03:08:39.594Z,95.60
2019-05-11T03:09:13.016Z,95.90
2019-05-11T03:09:46.808Z,95.60
2019-05-11T03:10:20.612Z,95.60
2019-05-11T03:10:54.424Z,95.60
2019-05-11T03:11:27.849Z,95.60
2019-05-11T03:12:01.638Z,95.60
2019-05-11T03:12:35.424Z,95.60
2019-05-11T03:13:09.204Z,95.60
2019-05-11T03:13:42.640Z,95.70
2019-05-11T03:14:16.433Z,95.70
2019-05-11T03:14:50.222Z,95.70
2019-05-11T03:15:24.009Z,95.70
2019-05-11T03:15:57.447Z,95.70
2019-05-11T03:16:31.257Z,95.70
2019-05-11T03:17:21.064Z,95.80
2019-05-11T03:17:54.919Z,95.70
2019-05-11T03:18:28.485Z,95.70
2019-05-11T03:19:02.336Z,95.80
2019-05-11T03:19:36.133Z,95.70
2019-05-11T03:20:09.918Z,95.80
2019-05-11T03:20:43.338Z,95.80
2019-05-11T03:21:17.152Z,95.80
2019-05-11T03:21:50.970Z,95.80
2019-05-11T03:22:24.754Z,95.80
2019-05-11T03:22:58.168Z,95.80
2019-05-11T03:23:31.961Z,95.80
2019-05-11T03:24:05.744Z,95.80
2019-05-11T03:24:39.540Z,95.80
2019-05-11T03:25:12.957Z,95.80
2019-05-11T03:25:46.746Z,95.80
2019-05-11T03:26:20.545Z,96.20
2019-05-11T03:26:54.348Z,95.80
2019-05-11T03:27:27.785Z,95.90
2019-05-11T03:28:01.573Z,95.90
2019-05-11T03:28:35.361Z,95.80
2019-05-11T03:29:09.173Z,95.80
2019-05-11T03:29:43.004Z,95.80
2019-05-11T03:30:16.790Z,95.80
2019-05-11T03:30:50.584Z,95.80
2019-05-11T03:31:24.403Z,95.80
2019-05-11T03:31:57.795Z,95.90
2019-05-11T03:32:31.600Z,95.90
2019-05-11T03:33:05.466Z,95.90
2019-05-11T03:33:39.299Z,95.90
2019-05-11T03:34:12.719Z,95.90
2019-05-11T03:34:46.510Z,95.90
2019-05-11T03:35:20.304Z,95.90
2019-05-11T03:35:54.184Z,95.90
2019-05-11T03:36:27.616Z,95.80
2019-05-11T03:37:01.410Z,95.80
2019-05-11T03:37:35.203Z,95.90
2019-05-11T03:38:09.016Z,95.90
2019-05-11T03:38:42.457Z,95.80
2019-05-11T03:39:16.244Z,95.80
2019-05-11T03:39:50.028Z,95.80
2019-05-11T03:40:23.825Z,95.80
2019-05-11T03:40:57.247Z,95.80
2019-05-11T03:41:31.038Z,95.80
2019-05-11T03:42:14.753Z,95.80
2019-05-11T03:42:40.550Z,95.80
2019-05-11T03:43:13.957Z,95.80
2019-05-11T03:43:47.764Z,95.80
2019-05-11T03:44:21.576Z,95.80
2019-05-11T03:44:55.361Z,95.80
2019-05-11T03:45:28.780Z,95.80
2019-05-11T03:46:02.566Z,95.80
2019-05-11T03:46:36.365Z,95.90
2019-05-11T03:47:10.146Z,95.90
2019-05-11T03:47:43.587Z,95.90
2019-05-11T03:48:17.361Z,96.10
2019-05-11T03:48:51.151Z,95.90
2019-05-11T03:49:25.086Z,95.80
2019-05-11T03:49:58.499Z,95.80
2019-05-11T03:50:32.286Z,95.80
2019-05-11T03:51:06.080Z,95.80
2019-05-11T03:51:39.870Z,95.80
2019-05-11T03:52:13.296Z,96.10
2019-05-11T03:52:47.072Z,95.80
2019-05-11T03:53:20.859Z,95.80
2019-05-11T03:53:54.703Z,95.70
2019-05-11T03:54:28.121Z,95.80
2019-05-11T03:55:01.960Z,95.70
2019-05-11T03:55:35.751Z,95.70
2019-05-11T03:56:09.530Z,95.70
2019-05-11T03:56:42.948Z,95.70
2019-05-11T03:57:16.737Z,95.70
2019-05-11T03:57:50.523Z,95.70
2019-05-11T03:58:26.203Z,95.70
2019-05-11T03:58:59.441Z,95.60
2019-05-11T03:59:33.233Z,95.60
2019-05-11T04:00:07.394Z,95.60
2019-05-11T04:00:41.213Z,95.60
2019-05-11T04:01:14.648Z,95.70
2019-05-11T04:01:48.443Z,95.70
2019-05-11T04:02:22.225Z,95.70
2019-05-11T04:02:56.024Z,95.60
2019-05-11T04:03:29.443Z,95.60
2019-05-11T04:04:03.243Z,95.60
2019-05-11T04:04:37.027Z,95.60
2019-05-11T04:05:10.820Z,95.60
2019-05-11T04:05:44.240Z,95.60
2019-05-11T04:06:18.043Z,95.60
2019-05-11T04:06:51.858Z,95.60
2019-05-11T04:07:25.715Z,95.60
2019-05-11T04:07:59.138Z,95.60
2019-05-11T04:08:32.924Z,95.60
2019-05-11T04:09:07.744Z,95.60
2019-05-11T04:09:41.540Z,95.50
2019-05-11T04:10:14.957Z,95.50
2019-05-11T04:10:48.759Z,95.80
2019-05-11T04:11:22.536Z,95.40
2019-05-11T04:11:56.347Z,95.40
2019-05-11T04:12:34.611Z,95.40
2019-05-11T04:13:05.317Z,95.40
2019-05-11T04:13:39.120Z,95.40
2019-05-11T04:14:12.909Z,95.40
2019-05-11T04:14:46.335Z,95.30
2019-05-11T04:15:20.120Z,95.30
2019-05-11T04:15:53.915Z,95.30
2019-05-11T04:16:27.700Z,95.30
2019-05-11T04:17:01.119Z,95.30
2019-05-11T04:17:34.929Z,95.30
2019-05-11T04:18:08.745Z,95.30
2019-05-11T04:18:42.532Z,95.30
2019-05-11T04:19:15.948Z,95.30
2019-05-11T04:19:50.371Z,95.40
2019-05-11T04:20:24.173Z,95.30
2019-05-11T04:20:57.961Z,95.30
2019-05-11T04:21:31.399Z,95.30
2019-05-11T04:22:05.177Z,95.20
2019-05-11T04:22:38.965Z,95.20
2019-05-11T04:23:12.782Z,95.20
2019-05-11T04:23:46.253Z,95.20
2019-05-11T04:24:20.040Z,95.20
2019-05-11T04:24:53.827Z,95.20
2019-05-11T04:25:27.652Z,95.20
2019-05-11T04:26:01.051Z,95.20
2019-05-11T04:26:34.835Z,95.20
2019-05-11T04:27:08.634Z,95.20
2019-05-11T04:27:42.408Z,95.20
2019-05-11T04:28:15.834Z,95.20
2019-05-11T04:28:49.634Z,95.20
2019-05-11T04:29:23.448Z,95.20
2019-05-11T04:29:57.308Z,95.30
2019-05-11T04:30:30.808Z,95.30
2019-05-11T04:31:04.629Z,95.30
2019-05-11T04:31:38.420Z,95.30
2019-05-11T04:32:12.222Z,95.30
2019-05-11T04:32:45.629Z,95.30
2019-05-11T04:33:19.425Z,95.30
2019-05-11T04:33:53.222Z,95.30
2019-05-11T04:34:27.018Z,95.30
2019-05-11T04:35:00.458Z,95.20
2019-05-11T04:35:34.246Z,95.20
2019-05-11T04:36:08.049Z,95.20
2019-05-11T04:36:41.829Z,95.20
2019-05-11T04:37:15.250Z,95.20
2019-05-11T04:37:49.046Z,95.20
2019-05-11T04:38:22.839Z,95.20
2019-05-11T04:38:56.621Z,95.20
2019-05-11T04:39:30.046Z,95.20
2019-05-11T04:40:04.214Z,95.20
2019-05-11T04:40:38.026Z,95.20
2019-05-11T04:41:11.809Z,95.20
2019-05-11T04:41:45.229Z,95.20
2019-05-11T04:42:19.012Z,95.20
2019-05-11T04:42:55.709Z,95.20
2019-05-11T04:43:28.237Z,95.20
2019-05-11T04:44:01.676Z,95.20
2019-05-11T04:44:35.451Z,95.20
2019-05-11T04:45:09.245Z,95.30
2019-05-11T04:45:43.057Z,95.30
2019-05-11T04:46:16.497Z,95.30
2019-05-11T04:46:50.295Z,95.20
2019-05-11T04:47:24.073Z,95.20
2019-05-11T04:47:57.899Z,95.20
2019-05-11T04:48:31.316Z,95.20
2019-05-11T04:49:05.121Z,95.30
2019-05-11T04:49:38.918Z,95.20
2019-05-11T04:50:12.702Z,95.20
2019-05-11T04:50:46.127Z,95.20
2019-05-11T04:51:19.930Z,95.20
2019-05-11T04:51:53.737Z,95.20
2019-05-11T04:52:27.535Z,95.10
2019-05-11T04:53:00.959Z,95.20
2019-05-11T04:53:34.762Z,95.10
2019-05-11T04:54:08.541Z,95.10
2019-05-11T04:54:42.342Z,95.10
2019-05-11T04:55:15.749Z,95.10
2019-05-11T04:55:49.550Z,95.10
2019-05-11T04:56:23.337Z,95.10
2019-05-11T04:56:57.151Z,95.10
2019-05-11T04:57:30.655Z,95.10
2019-05-11T04:58:04.443Z,95.10
2019-05-11T04:58:38.231Z,95.10
2019-05-11T04:59:12.030Z,95.10
2019-05-11T04:59:45.448Z,95.10
2019-05-11T05:00:19.412Z,95.00
2019-05-11T05:00:53.199Z,95.10
2019-05-11T05:01:26.997Z,95.10
2019-05-11T05:02:00.426Z,95.20
2019-05-11T05:02:34.239Z,95.20
2019-05-11T05:03:08.044Z,95.20
2019-05-11T05:03:47.368Z,95.10
2019-05-11T05:04:17.080Z,95.10
2019-05-11T05:04:50.855Z,95.10
2019-05-11T05:05:24.649Z,95.10
2019-05-11T05:06:20.882Z,95.00
2019-05-11T05:06:33.551Z,95.00
2019-05-11T05:07:10.687Z,95.00
2019-05-11T05:07:48.882Z,95.00
2019-05-11T05:08:21.039Z,95.00
2019-05-11T05:08:53.461Z,95.00
2019-05-11T05:09:28.855Z,95.00
2019-05-11T05:10:02.945Z,95.00
2019-05-11T05:10:36.733Z,94.90
2019-05-11T05:11:10.247Z,94.90
2019-05-11T05:11:44.041Z,94.90
2019-05-11T05:12:17.829Z,94.80
2019-05-11T05:12:53.320Z,94.80
2019-05-11T05:13:29.443Z,94.80
2019-05-11T05:14:08.344Z,94.80
2019-05-11T05:14:37.602Z,94.80
2019-05-11T05:15:11.389Z,94.80
2019-05-11T05:15:44.812Z,94.80
2019-05-11T05:16:18.609Z,94.90
2019-05-11T05:16:52.405Z,95.00
2019-05-11T05:17:26.187Z,95.00
2019-05-11T05:17:59.642Z,94.90
2019-05-11T05:18:33.474Z,94.90
2019-05-11T05:19:07.323Z,94.90
2019-05-11T05:19:41.123Z,94.80
2019-05-11T05:20:14.560Z,94.80
2019-05-11T05:20:48.355Z,94.80
2019-05-11T05:21:22.136Z,94.80
2019-05-11T05:21:55.928Z,94.80
2019-05-11T05:22:29.345Z,94.70
2019-05-11T05:23:03.129Z,94.70
2019-05-11T05:23:36.919Z,94.60
2019-05-11T05:24:10.717Z,94.50
2019-05-11T05:24:44.148Z,94.50
2019-05-11T05:25:17.956Z,94.40
2019-05-11T05:25:51.760Z,94.40
2019-05-11T05:26:25.544Z,94.30
2019-05-11T05:26:59.000Z,94.30
2019-05-11T05:27:32.754Z,94.30
2019-05-11T05:28:06.544Z,94.20
2019-05-11T05:28:40.333Z,94.30
2019-05-11T05:29:13.757Z,94.30
2019-05-11T05:29:47.655Z,94.30
2019-05-11T05:30:21.440Z,94.30
2019-05-11T05:30:55.246Z,94.20
2019-05-11T05:31:28.686Z,94.20
2019-05-11T05:32:02.480Z,94.20
2019-05-11T05:32:36.280Z,94.10
2019-05-11T05:33:10.072Z,94.10
2019-05-11T05:33:43.492Z,94.10
2019-05-11T05:34:17.275Z,94.10
2019-05-11T05:34:51.072Z,94.10
2019-05-11T05:35:24.879Z,94.10
2019-05-11T05:35:58.294Z,94.10
2019-05-11T05:36:32.102Z,94.10
2019-05-11T05:37:05.922Z,94.00
2019-05-11T05:37:39.713Z,93.80
2019-05-11T05:38:13.134Z,93.80
2019-05-11T05:38:46.920Z,93.70
2019-05-11T05:39:20.712Z,93.70
2019-05-11T05:39:54.585Z,93.50
2019-05-11T05:40:28.004Z,93.30
2019-05-11T05:41:01.788Z,93.30
2019-05-11T05:41:35.572Z,93.20
2019-05-11T05:42:09.397Z,93.20
2019-05-11T05:42:42.828Z,93.10
2019-05-11T05:43:25.878Z,93.00
2019-05-11T05:43:52.048Z,93.10
2019-05-11T05:44:27.798Z,92.90
2019-05-11T05:45:01.529Z,92.90
2019-05-11T05:45:35.317Z,92.90
2019-05-11T05:46:09.112Z,92.90
2019-05-11T05:46:42.906Z,92.80
2019-05-11T05:47:16.324Z,92.90
2019-05-11T05:47:50.209Z,92.90
2019-05-11T05:48:24.019Z,92.90
2019-05-11T05:48:57.821Z,92.80
2019-05-11T05:49:31.228Z,92.70
2019-05-11T05:50:06.757Z,92.60
2019-05-11T05:50:40.552Z,92.70
2019-05-11T05:51:14.335Z,92.60
2019-05-11T05:51:47.765Z,92.50
2019-05-11T05:52:21.556Z,92.40
2019-05-11T05:52:55.350Z,92.30
2019-05-11T05:53:29.159Z,92.40
2019-05-11T05:54:02.674Z,92.20
2019-05-11T05:54:36.495Z,92.20
2019-05-11T05:55:10.284Z,92.10
2019-05-11T05:55:44.073Z,92.10
2019-05-11T05:56:17.492Z,92.10
2019-05-11T05:56:51.280Z,92.10
2019-05-11T05:57:25.071Z,92.50
2019-05-11T05:57:58.860Z,92.00
2019-05-11T05:58:32.306Z,92.10
2019-05-11T05:59:06.100Z,92.00
2019-05-11T05:59:39.912Z,91.80
2019-05-11T06:00:13.697Z,91.40
2019-05-11T06:00:47.125Z,91.40
2019-05-11T06:01:20.914Z,91.30
2019-05-11T06:01:54.710Z,91.20
2019-05-11T06:02:28.491Z,91.30
2019-05-11T06:03:01.971Z,91.20
2019-05-11T06:03:35.756Z,91.30
2019-05-11T06:04:09.548Z,91.20
2019-05-11T06:04:43.357Z,91.20
2019-05-11T06:05:16.797Z,91.20
2019-05-11T06:05:50.583Z,91.30
2019-05-11T06:06:24.365Z,91.00
2019-05-11T06:06:58.148Z,90.90
2019-05-11T06:07:31.571Z,90.90
2019-05-11T06:08:05.362Z,90.90
2019-05-11T06:08:42.883Z,90.60
2019-05-11T06:09:14.591Z,90.40
2019-05-11T06:09:48.009Z,90.30
2019-05-11T06:10:21.823Z,90.30
2019-05-11T06:10:55.628Z,90.10
2019-05-11T06:11:29.408Z,90.10
2019-05-11T06:12:02.912Z,90.10
2019-05-11T06:12:36.701Z,90.10
2019-05-11T06:13:10.492Z,90.10
2019-05-11T06:13:45.789Z,90.10
2019-05-11T06:14:19.512Z,90.10
2019-05-11T06:14:53.306Z,90.10
2019-05-11T06:15:27.096Z,90.00
2019-05-11T06:16:00.902Z,89.80
2019-05-11T06:16:34.334Z,89.60
2019-05-11T06:17:08.125Z,89.30
2019-05-11T06:17:41.908Z,89.30
2019-05-11T06:18:15.700Z,89.30
2019-05-11T06:18:49.132Z,89.40
2019-05-11T06:19:22.928Z,88.90
2019-05-11T06:19:56.732Z,89.30
2019-05-11T06:20:31.281Z,89.20
2019-05-11T06:21:04.768Z,89.00
2019-05-11T06:21:38.587Z,89.00
2019-05-11T06:22:12.396Z,89.00
2019-05-11T06:22:46.194Z,88.70
2019-05-11T06:23:19.677Z,88.90
2019-05-11T06:23:53.464Z,89.20
2019-05-11T06:24:27.247Z,88.90
2019-05-11T06:25:01.039Z,88.30
2019-05-11T06:25:34.553Z,88.10
2019-05-11T06:26:08.327Z,88.00
2019-05-11T06:26:42.179Z,87.50
2019-05-11T06:27:16.002Z,87.50
2019-05-11T06:27:49.455Z,87.50
2019-05-11T06:28:23.234Z,87.40
2019-05-11T06:28:57.020Z,87.20
2019-05-11T06:29:30.893Z,87.00
2019-05-11T06:30:07.035Z,86.70
2019-05-11T06:30:40.827Z,86.80
2019-05-11T06:31:14.619Z,86.60
2019-05-11T06:31:48.395Z,86.80
2019-05-11T06:32:21.823Z,86.80
2019-05-11T06:32:55.623Z,86.80
2019-05-11T06:33:29.426Z,86.50
2019-05-11T06:34:03.241Z,86.40
2019-05-11T06:34:36.653Z,86.50
2019-05-11T06:35:10.439Z,86.30
2019-05-11T06:35:44.233Z,86.70
2019-05-11T06:36:18.019Z,86.50
2019-05-11T06:36:51.452Z,86.00
2019-05-11T06:37:25.236Z,86.10
2019-05-11T06:37:59.039Z,85.90
2019-05-11T06:38:32.847Z,85.50
2019-05-11T06:39:08.287Z,85.10
2019-05-11T06:39:42.077Z,85.10
2019-05-11T06:40:15.868Z,85.20
2019-05-11T06:40:49.658Z,85.00
2019-05-11T06:41:23.070Z,84.80
2019-05-11T06:41:56.860Z,85.10
2019-05-11T06:42:30.649Z,84.20
2019-05-11T06:43:04.462Z,85.60
2019-05-11T06:43:37.896Z,84.90
2019-05-11T06:44:11.696Z,85.20
2019-05-11T06:44:45.497Z,85.20
2019-05-11T06:45:19.281Z,85.50
2019-05-11T06:45:52.703Z,85.70
2019-05-11T06:46:26.492Z,85.80
2019-05-11T06:47:00.276Z,86.00
2019-05-11T06:47:34.076Z,86.20
2019-05-11T06:48:07.716Z,85.80
2019-05-11T06:48:41.525Z,85.90
2019-05-11T06:49:15.310Z,86.10
2019-05-11T06:49:49.127Z,86.20
2019-05-11T06:50:22.565Z,86.20
2019-05-11T06:50:56.347Z,86.00
2019-05-11T06:51:30.152Z,86.20
2019-05-11T06:52:03.985Z,86.30
2019-05-11T06:52:37.404Z,86.50
2019-05-11T06:53:11.198Z,86.80
2019-05-11T06:53:44.981Z,87.00
2019-05-11T06:54:18.777Z,86.90
2019-05-11T06:54:52.207Z,86.80
2019-05-11T06:55:26.024Z,86.50
2019-05-11T06:55:59.824Z,86.40
2019-05-11T06:56:33.615Z,86.20
2019-05-11T06:57:07.042Z,85.80
2019-05-11T06:57:40.824Z,86.10
2019-05-11T06:58:14.607Z,85.60
2019-05-11T06:58:48.400Z,85.60
2019-05-11T06:59:21.822Z,85.60
2019-05-11T06:59:55.605Z,85.40
2019-05-11T07:00:29.402Z,85.10
2019-05-11T07:01:03.205Z,84.60
2019-05-11T07:01:36.635Z,84.20
2019-05-11T07:02:10.423Z,84.20
2019-05-11T07:02:44.214Z,84.40
2019-05-11T07:03:17.995Z,84.20
2019-05-11T07:03:51.422Z,84.00
2019-05-11T07:04:25.211Z,84.10
2019-05-11T07:04:59.002Z,84.40
2019-05-11T07:05:32.789Z,84.50
2019-05-11T07:06:06.213Z,84.50
2019-05-11T07:06:40.012Z,84.50
2019-05-11T07:07:13.817Z,84.30
2019-05-11T07:07:48.140Z,83.90
2019-05-11T07:08:21.528Z,84.00
2019-05-11T07:08:55.316Z,84.30
2019-05-11T07:09:29.139Z,83.90
2019-05-11T07:10:03.352Z,83.40
2019-05-11T07:10:36.771Z,82.80
2019-05-11T07:11:10.554Z,82.40
2019-05-11T07:11:44.332Z,81.70
2019-05-11T07:12:18.248Z,81.60
2019-05-11T07:12:51.775Z,81.90
2019-05-11T07:13:25.557Z,81.80
2019-05-11T07:13:59.349Z,81.60
2019-05-11T07:14:33.139Z,82.30
2019-05-11T07:15:09.480Z,80.90
2019-05-11T07:15:43.329Z,81.00